sensor_id;sensor_type;location;lat;lon;timestamp;P1;durP1;ratioP1;P2;durP2;ratioP2
43706;SDS011;61348;53.392;-6.248;2023-07-31T00:02:25;3.75;;;1.63;;
43706;SDS011;61348;53.392;-6.248;2023-07-31T00:04:51;3.70;;;1.23;;
43706;SDS011;61348;53.392;-6.248;2023-07-31T00:07:18;3.28;;;1.10;;
43706;SDS011;61348;53.392;-6.248;2023-07-31T00:09:45;3.58;;;1.65;;
43706;SDS011;61348;53.392;-6.248;2023-07-31T00:12:12;2.90;;;0.98;;
43706;SDS011;61348;53.392;-6.248;2023-07-31T00:14:39;2.85;;;1.30;;
43706;SDS011;61348;53.392;-6.248;2023-07-31T00:17:06;1.70;;;0.90;;
43706;SDS011;61348;53.392;-6.248;2023-07-31T00:19:33;3.95;;;1.98;;
43706;SDS011;61348;53.392;-6.248;2023-07-31T00:22:00;3.88;;;1.00;;
43706;SDS011;61348;53.392;-6.248;2023-07-31T00:24:27;3.70;;;1.27;;
43706;SDS011;61348;53.392;-6.248;2023-07-31T00:26:54;4.10;;;0.93;;
43706;SDS011;61348;53.392;-6.248;2023-07-31T00:29:21;1.88;;;1.17;;
43706;SDS011;61348;53.392;-6.248;2023-07-31T00:31:47;3.45;;;1.33;;
43706;SDS011;61348;53.392;-6.248;2023-07-31T00:34:14;5.82;;;1.40;;
43706;SDS011;61348;53.392;-6.248;2023-07-31T00:36:41;2.22;;;1.00;;
43706;SDS011;61348;53.392;-6.248;2023-07-31T00:39:08;2.45;;;1.30;;
43706;SDS011;61348;53.392;-6.248;2023-07-31T00:41:35;2.90;;;1.00;;
43706;SDS011;61348;53.392;-6.248;2023-07-31T00:44:02;2.33;;;1.58;;
43706;SDS011;61348;53.392;-6.248;2023-07-31T00:46:29;1.65;;;0.73;;
43706;SDS011;61348;53.392;-6.248;2023-07-31T00:48:56;3.65;;;1.50;;
43706;SDS011;61348;53.392;-6.248;2023-07-31T00:51:23;4.10;;;1.20;;
43706;SDS011;61348;53.392;-6.248;2023-07-31T00:53:50;6.32;;;1.45;;
43706;SDS011;61348;53.392;-6.248;2023-07-31T00:56:20;3.45;;;1.67;;
43706;SDS011;61348;53.392;-6.248;2023-07-31T00:58:47;3.20;;;1.20;;
43706;SDS011;61348;53.392;-6.248;2023-07-31T01:01:15;2.88;;;1.00;;
43706;SDS011;61348;53.392;-6.248;2023-07-31T01:03:42;1.50;;;0.85;;
43706;SDS011;61348;53.392;-6.248;2023-07-31T01:11:38;2.35;;;1.05;;
43706;SDS011;61348;53.392;-6.248;2023-07-31T01:14:14;5.75;;;1.40;;
43706;SDS011;61348;53.392;-6.248;2023-07-31T01:16:41;4.25;;;1.13;;
43706;SDS011;61348;53.392;-6.248;2023-07-31T01:19:09;1.38;;;0.70;;
43706;SDS011;61348;53.392;-6.248;2023-07-31T01:27:12;1.95;;;0.93;;
43706;SDS011;61348;53.392;-6.248;2023-07-31T01:32:41;1.85;;;0.80;;
43706;SDS011;61348;53.392;-6.248;2023-07-31T01:35:09;3.05;;;1.02;;
43706;SDS011;61348;53.392;-6.248;2023-07-31T01:37:36;1.33;;;0.70;;
43706;SDS011;61348;53.392;-6.248;2023-07-31T01:40:03;2.95;;;1.00;;
43706;SDS011;61348;53.392;-6.248;2023-07-31T01:42:31;1.80;;;0.80;;
43706;SDS011;61348;53.392;-6.248;2023-07-31T01:44:58;1.95;;;0.60;;
43706;SDS011;61348;53.392;-6.248;2023-07-31T01:47:25;2.55;;;0.65;;
43706;SDS011;61348;53.392;-6.248;2023-07-31T01:49:52;0.85;;;0.55;;
43706;SDS011;61348;53.392;-6.248;2023-07-31T01:52:18;1.40;;;0.70;;
43706;SDS011;61348;53.392;-6.248;2023-07-31T01:54:45;1.75;;;0.70;;
43706;SDS011;61348;53.392;-6.248;2023-07-31T01:57:12;3.08;;;1.05;;
43706;SDS011;61348;53.392;-6.248;2023-07-31T01:59:39;1.88;;;0.52;;
43706;SDS011;61348;53.392;-6.248;2023-07-31T02:02:05;1.63;;;0.65;;
43706;SDS011;61348;53.392;-6.248;2023-07-31T02:04:32;2.38;;;0.85;;
43706;SDS011;61348;53.392;-6.248;2023-07-31T02:06:59;2.47;;;0.60;;
43706;SDS011;61348;53.392;-6.248;2023-07-31T02:09:26;3.75;;;0.80;;
43706;SDS011;61348;53.392;-6.248;2023-07-31T02:11:53;3.60;;;0.75;;
43706;SDS011;61348;53.392;-6.248;2023-07-31T02:14:19;1.10;;;0.65;;
43706;SDS011;61348;53.392;-6.248;2023-07-31T02:16:46;1.90;;;1.10;;
43706;SDS011;61348;53.392;-6.248;2023-07-31T02:19:13;1.83;;;1.00;;
43706;SDS011;61348;53.392;-6.248;2023-07-31T02:21:40;2.38;;;0.60;;
43706;SDS011;61348;53.392;-6.248;2023-07-31T02:24:06;1.00;;;0.70;;
43706;SDS011;61348;53.392;-6.248;2023-07-31T02:26:33;1.23;;;0.65;;
43706;SDS011;61348;53.392;-6.248;2023-07-31T02:29:00;0.60;;;0.57;;
43706;SDS011;61348;53.392;-6.248;2023-07-31T02:31:27;1.25;;;0.70;;
43706;SDS011;61348;53.392;-6.248;2023-07-31T02:33:54;2.08;;;0.60;;
43706;SDS011;61348;53.392;-6.248;2023-07-31T02:36:21;1.25;;;0.70;;
43706;SDS011;61348;53.392;-6.248;2023-07-31T02:38:47;2.05;;;0.70;;
43706;SDS011;61348;53.392;-6.248;2023-07-31T02:41:14;1.73;;;0.75;;
43706;SDS011;61348;53.392;-6.248;2023-07-31T02:43:41;1.00;;;0.70;;
43706;SDS011;61348;53.392;-6.248;2023-07-31T02:46:08;0.68;;;0.47;;
43706;SDS011;61348;53.392;-6.248;2023-07-31T02:48:34;2.47;;;0.70;;
43706;SDS011;61348;53.392;-6.248;2023-07-31T02:51:01;2.17;;;0.80;;
43706;SDS011;61348;53.392;-6.248;2023-07-31T02:53:28;1.70;;;0.68;;
43706;SDS011;61348;53.392;-6.248;2023-07-31T02:55:57;1.67;;;0.65;;
43706;SDS011;61348;53.392;-6.248;2023-07-31T02:58:24;1.17;;;0.50;;
43706;SDS011;61348;53.392;-6.248;2023-07-31T03:00:51;2.72;;;0.68;;
43706;SDS011;61348;53.392;-6.248;2023-07-31T03:03:17;0.40;;;0.40;;
43706;SDS011;61348;53.392;-6.248;2023-07-31T03:05:44;0.93;;;0.57;;
43706;SDS011;61348;53.392;-6.248;2023-07-31T03:08:12;1.08;;;0.60;;
43706;SDS011;61348;53.392;-6.248;2023-07-31T03:10:39;1.65;;;0.63;;
43706;SDS011;61348;53.392;-6.248;2023-07-31T03:13:06;0.50;;;0.43;;
43706;SDS011;61348;53.392;-6.248;2023-07-31T03:15:33;1.45;;;0.28;;
43706;SDS011;61348;53.392;-6.248;2023-07-31T03:18:00;2.70;;;0.38;;
43706;SDS011;61348;53.392;-6.248;2023-07-31T03:20:27;2.97;;;0.50;;
43706;SDS011;61348;53.392;-6.248;2023-07-31T03:22:54;1.38;;;0.38;;
43706;SDS011;61348;53.392;-6.248;2023-07-31T03:25:20;0.63;;;0.45;;
43706;SDS011;61348;53.392;-6.248;2023-07-31T03:27:47;2.03;;;0.52;;
43706;SDS011;61348;53.392;-6.248;2023-07-31T03:30:14;0.82;;;0.40;;
43706;SDS011;61348;53.392;-6.248;2023-07-31T03:32:41;1.00;;;0.55;;
43706;SDS011;61348;53.392;-6.248;2023-07-31T03:35:08;2.75;;;0.35;;
43706;SDS011;61348;53.392;-6.248;2023-07-31T03:37:34;1.38;;;0.93;;
43706;SDS011;61348;53.392;-6.248;2023-07-31T03:40:01;1.17;;;0.50;;
43706;SDS011;61348;53.392;-6.248;2023-07-31T03:42:28;0.63;;;0.30;;
43706;SDS011;61348;53.392;-6.248;2023-07-31T03:44:55;3.70;;;0.30;;
43706;SDS011;61348;53.392;-6.248;2023-07-31T03:47:22;1.13;;;0.70;;
43706;SDS011;61348;53.392;-6.248;2023-07-31T03:49:49;0.60;;;0.40;;
43706;SDS011;61348;53.392;-6.248;2023-07-31T03:52:18;0.40;;;0.40;;
43706;SDS011;61348;53.392;-6.248;2023-07-31T03:54:45;1.17;;;0.25;;
43706;SDS011;61348;53.392;-6.248;2023-07-31T03:57:12;2.33;;;0.43;;
43706;SDS011;61348;53.392;-6.248;2023-07-31T03:59:39;1.60;;;0.52;;
43706;SDS011;61348;53.392;-6.248;2023-07-31T04:02:05;0.98;;;0.25;;
43706;SDS011;61348;53.392;-6.248;2023-07-31T04:04:32;1.90;;;0.50;;
43706;SDS011;61348;53.392;-6.248;2023-07-31T04:07:01;2.45;;;0.25;;
43706;SDS011;61348;53.392;-6.248;2023-07-31T04:09:28;0.30;;;0.30;;
43706;SDS011;61348;53.392;-6.248;2023-07-31T04:11:56;0.47;;;0.20;;
43706;SDS011;61348;53.392;-6.248;2023-07-31T04:14:23;1.13;;;0.28;;
43706;SDS011;61348;53.392;-6.248;2023-07-31T04:16:50;3.63;;;0.40;;
43706;SDS011;61348;53.392;-6.248;2023-07-31T04:19:17;0.52;;;0.30;;
43706;SDS011;61348;53.392;-6.248;2023-07-31T04:21:44;3.35;;;1.10;;
43706;SDS011;61348;53.392;-6.248;2023-07-31T04:24:11;3.58;;;0.73;;
43706;SDS011;61348;53.392;-6.248;2023-07-31T04:26:37;3.33;;;0.40;;
43706;SDS011;61348;53.392;-6.248;2023-07-31T04:29:05;2.60;;;0.40;;
43706;SDS011;61348;53.392;-6.248;2023-07-31T04:31:32;1.02;;;0.30;;
43706;SDS011;61348;53.392;-6.248;2023-07-31T04:34:02;1.27;;;0.30;;
43706;SDS011;61348;53.392;-6.248;2023-07-31T04:36:29;0.75;;;0.60;;
43706;SDS011;61348;53.392;-6.248;2023-07-31T04:38:56;0.22;;;0.20;;
43706;SDS011;61348;53.392;-6.248;2023-07-31T04:41:23;0.98;;;0.32;;
43706;SDS011;61348;53.392;-6.248;2023-07-31T04:43:50;1.45;;;0.35;;
43706;SDS011;61348;53.392;-6.248;2023-07-31T04:46:18;0.40;;;0.40;;
43706;SDS011;61348;53.392;-6.248;2023-07-31T04:48:44;2.03;;;0.22;;
43706;SDS011;61348;53.392;-6.248;2023-07-31T04:51:11;0.98;;;0.47;;
43706;SDS011;61348;53.392;-6.248;2023-07-31T04:53:38;1.20;;;0.45;;
43706;SDS011;61348;53.392;-6.248;2023-07-31T04:56:05;0.63;;;0.20;;
43706;SDS011;61348;53.392;-6.248;2023-07-31T04:58:31;2.75;;;0.38;;
43706;SDS011;61348;53.392;-6.248;2023-07-31T05:00:58;0.75;;;0.35;;
43706;SDS011;61348;53.392;-6.248;2023-07-31T05:03:25;1.60;;;0.40;;
43706;SDS011;61348;53.392;-6.248;2023-07-31T05:05:52;1.42;;;0.28;;
43706;SDS011;61348;53.392;-6.248;2023-07-31T05:08:19;0.50;;;0.32;;
43706;SDS011;61348;53.392;-6.248;2023-07-31T05:10:46;0.30;;;0.30;;
43706;SDS011;61348;53.392;-6.248;2023-07-31T05:13:12;1.92;;;0.30;;
43706;SDS011;61348;53.392;-6.248;2023-07-31T05:15:40;1.70;;;0.50;;
43706;SDS011;61348;53.392;-6.248;2023-07-31T05:18:07;0.55;;;0.28;;
43706;SDS011;61348;53.392;-6.248;2023-07-31T05:20:34;3.03;;;0.28;;
43706;SDS011;61348;53.392;-6.248;2023-07-31T05:23:01;0.40;;;0.40;;
43706;SDS011;61348;53.392;-6.248;2023-07-31T05:25:28;1.00;;;0.30;;
43706;SDS011;61348;53.392;-6.248;2023-07-31T05:27:55;1.38;;;0.50;;
43706;SDS011;61348;53.392;-6.248;2023-07-31T05:30:22;4.30;;;0.88;;
43706;SDS011;61348;53.392;-6.248;2023-07-31T05:32:48;2.30;;;0.80;;
43706;SDS011;61348;53.392;-6.248;2023-07-31T05:35:15;0.95;;;0.40;;
43706;SDS011;61348;53.392;-6.248;2023-07-31T05:37:42;3.28;;;0.50;;
43706;SDS011;61348;53.392;-6.248;2023-07-31T05:40:09;2.88;;;0.60;;
43706;SDS011;61348;53.392;-6.248;2023-07-31T05:42:37;2.00;;;0.68;;
43706;SDS011;61348;53.392;-6.248;2023-07-31T05:45:05;3.15;;;0.85;;
43706;SDS011;61348;53.392;-6.248;2023-07-31T05:47:33;2.17;;;0.85;;
43706;SDS011;61348;53.392;-6.248;2023-07-31T05:50:00;2.25;;;0.80;;
43706;SDS011;61348;53.392;-6.248;2023-07-31T05:52:27;1.13;;;0.65;;
43706;SDS011;61348;53.392;-6.248;2023-07-31T05:54:55;2.97;;;0.70;;
43706;SDS011;61348;53.392;-6.248;2023-07-31T05:57:22;1.95;;;0.73;;
43706;SDS011;61348;53.392;-6.248;2023-07-31T05:59:49;4.18;;;1.27;;
43706;SDS011;61348;53.392;-6.248;2023-07-31T06:02:17;4.32;;;1.25;;
43706;SDS011;61348;53.392;-6.248;2023-07-31T06:04:44;2.67;;;1.02;;
43706;SDS011;61348;53.392;-6.248;2023-07-31T06:07:11;3.67;;;1.08;;
43706;SDS011;61348;53.392;-6.248;2023-07-31T06:09:38;4.35;;;1.02;;
43706;SDS011;61348;53.392;-6.248;2023-07-31T06:12:05;1.33;;;0.80;;
43706;SDS011;61348;53.392;-6.248;2023-07-31T06:14:32;3.03;;;0.98;;
43706;SDS011;61348;53.392;-6.248;2023-07-31T06:16:59;2.97;;;1.45;;
43706;SDS011;61348;53.392;-6.248;2023-07-31T06:19:25;3.67;;;1.35;;
43706;SDS011;61348;53.392;-6.248;2023-07-31T06:21:52;5.75;;;1.35;;
43706;SDS011;61348;53.392;-6.248;2023-07-31T06:24:19;2.45;;;1.10;;
43706;SDS011;61348;53.392;-6.248;2023-07-31T06:26:48;5.85;;;1.00;;
43706;SDS011;61348;53.392;-6.248;2023-07-31T06:29:17;2.28;;;1.25;;
43706;SDS011;61348;53.392;-6.248;2023-07-31T06:31:44;3.92;;;1.00;;
43706;SDS011;61348;53.392;-6.248;2023-07-31T06:34:11;2.60;;;1.33;;
43706;SDS011;61348;53.392;-6.248;2023-07-31T06:36:37;5.15;;;1.40;;
43706;SDS011;61348;53.392;-6.248;2023-07-31T06:39:05;5.03;;;1.13;;
43706;SDS011;61348;53.392;-6.248;2023-07-31T06:41:31;3.67;;;1.23;;
43706;SDS011;61348;53.392;-6.248;2023-07-31T06:43:58;3.55;;;1.60;;
43706;SDS011;61348;53.392;-6.248;2023-07-31T06:46:25;4.60;;;1.60;;
43706;SDS011;61348;53.392;-6.248;2023-07-31T06:48:52;6.35;;;2.17;;
43706;SDS011;61348;53.392;-6.248;2023-07-31T06:51:19;7.75;;;2.28;;
43706;SDS011;61348;53.392;-6.248;2023-07-31T06:53:46;5.65;;;1.67;;
43706;SDS011;61348;53.392;-6.248;2023-07-31T06:56:13;5.15;;;1.50;;
43706;SDS011;61348;53.392;-6.248;2023-07-31T06:58:40;4.93;;;2.38;;
43706;SDS011;61348;53.392;-6.248;2023-07-31T07:01:07;5.00;;;2.05;;
43706;SDS011;61348;53.392;-6.248;2023-07-31T07:03:33;5.35;;;1.40;;
43706;SDS011;61348;53.392;-6.248;2023-07-31T07:06:01;6.10;;;1.80;;
43706;SDS011;61348;53.392;-6.248;2023-07-31T07:08:27;7.10;;;1.65;;
43706;SDS011;61348;53.392;-6.248;2023-07-31T07:10:55;6.43;;;1.65;;
43706;SDS011;61348;53.392;-6.248;2023-07-31T07:13:22;5.75;;;1.75;;
43706;SDS011;61348;53.392;-6.248;2023-07-31T07:15:49;5.40;;;2.25;;
43706;SDS011;61348;53.392;-6.248;2023-07-31T07:18:16;4.93;;;2.05;;
43706;SDS011;61348;53.392;-6.248;2023-07-31T07:20:50;7.65;;;2.05;;
43706;SDS011;61348;53.392;-6.248;2023-07-31T07:23:18;3.58;;;1.52;;
43706;SDS011;61348;53.392;-6.248;2023-07-31T07:25:46;4.72;;;1.75;;
43706;SDS011;61348;53.392;-6.248;2023-07-31T07:28:16;5.82;;;1.70;;
43706;SDS011;61348;53.392;-6.248;2023-07-31T07:30:43;5.10;;;1.83;;
43706;SDS011;61348;53.392;-6.248;2023-07-31T07:33:10;5.28;;;1.70;;
43706;SDS011;61348;53.392;-6.248;2023-07-31T07:35:38;5.45;;;1.73;;
43706;SDS011;61348;53.392;-6.248;2023-07-31T07:38:05;7.13;;;1.40;;
43706;SDS011;61348;53.392;-6.248;2023-07-31T07:40:32;4.38;;;1.35;;
43706;SDS011;61348;53.392;-6.248;2023-07-31T07:42:58;2.80;;;1.50;;
43706;SDS011;61348;53.392;-6.248;2023-07-31T07:45:26;11.18;;;2.90;;
43706;SDS011;61348;53.392;-6.248;2023-07-31T07:47:53;7.38;;;1.20;;
43706;SDS011;61348;53.392;-6.248;2023-07-31T07:50:20;6.95;;;1.77;;
43706;SDS011;61348;53.392;-6.248;2023-07-31T07:52:47;7.88;;;2.03;;
43706;SDS011;61348;53.392;-6.248;2023-07-31T07:55:13;4.75;;;1.40;;
43706;SDS011;61348;53.392;-6.248;2023-07-31T07:57:40;2.72;;;1.30;;
43706;SDS011;61348;53.392;-6.248;2023-07-31T08:00:07;5.90;;;2.28;;
43706;SDS011;61348;53.392;-6.248;2023-07-31T08:02:38;3.38;;;0.93;;
43706;SDS011;61348;53.392;-6.248;2023-07-31T08:05:05;5.65;;;1.40;;
43706;SDS011;61348;53.392;-6.248;2023-07-31T08:07:31;6.35;;;1.33;;
43706;SDS011;61348;53.392;-6.248;2023-07-31T08:09:58;4.10;;;1.50;;
43706;SDS011;61348;53.392;-6.248;2023-07-31T08:12:25;6.35;;;1.10;;
43706;SDS011;61348;53.392;-6.248;2023-07-31T08:14:52;6.22;;;1.40;;
43706;SDS011;61348;53.392;-6.248;2023-07-31T08:17:19;2.22;;;1.00;;
43706;SDS011;61348;53.392;-6.248;2023-07-31T08:19:45;3.78;;;1.30;;
43706;SDS011;61348;53.392;-6.248;2023-07-31T08:22:12;6.07;;;1.50;;
43706;SDS011;61348;53.392;-6.248;2023-07-31T08:24:40;3.80;;;1.35;;
43706;SDS011;61348;53.392;-6.248;2023-07-31T08:27:07;2.90;;;1.00;;
43706;SDS011;61348;53.392;-6.248;2023-07-31T08:29:34;2.38;;;0.70;;
43706;SDS011;61348;53.392;-6.248;2023-07-31T08:32:01;6.35;;;1.58;;
43706;SDS011;61348;53.392;-6.248;2023-07-31T08:34:28;2.72;;;1.65;;
43706;SDS011;61348;53.392;-6.248;2023-07-31T08:36:55;7.72;;;1.67;;
43706;SDS011;61348;53.392;-6.248;2023-07-31T08:39:22;7.68;;;1.65;;
43706;SDS011;61348;53.392;-6.248;2023-07-31T08:41:49;7.95;;;1.60;;
43706;SDS011;61348;53.392;-6.248;2023-07-31T08:44:16;9.30;;;1.48;;
43706;SDS011;61348;53.392;-6.248;2023-07-31T08:46:45;9.25;;;2.55;;
43706;SDS011;61348;53.392;-6.248;2023-07-31T08:49:13;11.75;;;1.75;;
43706;SDS011;61348;53.392;-6.248;2023-07-31T08:51:41;12.85;;;2.25;;
43706;SDS011;61348;53.392;-6.248;2023-07-31T08:54:08;8.57;;;2.30;;
43706;SDS011;61348;53.392;-6.248;2023-07-31T08:56:35;6.30;;;1.80;;
43706;SDS011;61348;53.392;-6.248;2023-07-31T08:59:03;13.95;;;2.00;;
43706;SDS011;61348;53.392;-6.248;2023-07-31T09:01:31;10.20;;;2.08;;
43706;SDS011;61348;53.392;-6.248;2023-07-31T09:04:04;10.63;;;2.00;;
43706;SDS011;61348;53.392;-6.248;2023-07-31T09:06:32;8.07;;;2.38;;
43706;SDS011;61348;53.392;-6.248;2023-07-31T09:09:00;8.32;;;1.95;;
43706;SDS011;61348;53.392;-6.248;2023-07-31T09:11:27;15.98;;;1.77;;
43706;SDS011;61348;53.392;-6.248;2023-07-31T09:13:54;5.85;;;1.70;;
43706;SDS011;61348;53.392;-6.248;2023-07-31T09:16:28;13.02;;;3.22;;
43706;SDS011;61348;53.392;-6.248;2023-07-31T09:18:58;11.82;;;2.10;;
43706;SDS011;61348;53.392;-6.248;2023-07-31T09:21:28;10.52;;;2.05;;
43706;SDS011;61348;53.392;-6.248;2023-07-31T09:23:55;10.82;;;2.72;;
43706;SDS011;61348;53.392;-6.248;2023-07-31T09:26:29;12.93;;;2.65;;
43706;SDS011;61348;53.392;-6.248;2023-07-31T09:28:57;13.45;;;2.45;;
43706;SDS011;61348;53.392;-6.248;2023-07-31T09:31:41;7.95;;;2.33;;
43706;SDS011;61348;53.392;-6.248;2023-07-31T09:34:09;7.38;;;2.13;;
43706;SDS011;61348;53.392;-6.248;2023-07-31T09:36:57;7.10;;;1.88;;
43706;SDS011;61348;53.392;-6.248;2023-07-31T09:39:27;8.18;;;1.92;;
43706;SDS011;61348;53.392;-6.248;2023-07-31T09:41:56;10.18;;;2.00;;
43706;SDS011;61348;53.392;-6.248;2023-07-31T09:47:21;7.03;;;1.85;;
43706;SDS011;61348;53.392;-6.248;2023-07-31T09:49:53;11.52;;;2.47;;
43706;SDS011;61348;53.392;-6.248;2023-07-31T09:52:19;16.08;;;2.58;;
43706;SDS011;61348;53.392;-6.248;2023-07-31T09:54:47;11.48;;;2.08;;
43706;SDS011;61348;53.392;-6.248;2023-07-31T09:57:14;9.63;;;3.15;;
43706;SDS011;61348;53.392;-6.248;2023-07-31T09:59:44;12.90;;;3.17;;
43706;SDS011;61348;53.392;-6.248;2023-07-31T10:02:13;9.95;;;2.03;;
43706;SDS011;61348;53.392;-6.248;2023-07-31T10:04:45;12.40;;;2.20;;
43706;SDS011;61348;53.392;-6.248;2023-07-31T10:07:17;7.63;;;2.00;;
43706;SDS011;61348;53.392;-6.248;2023-07-31T10:09:46;10.07;;;2.28;;
43706;SDS011;61348;53.392;-6.248;2023-07-31T10:12:14;17.38;;;2.47;;
43706;SDS011;61348;53.392;-6.248;2023-07-31T10:14:45;9.35;;;1.98;;
43706;SDS011;61348;53.392;-6.248;2023-07-31T10:17:12;7.47;;;1.92;;
43706;SDS011;61348;53.392;-6.248;2023-07-31T10:19:40;14.48;;;2.38;;
43706;SDS011;61348;53.392;-6.248;2023-07-31T10:22:08;12.50;;;2.55;;
43706;SDS011;61348;53.392;-6.248;2023-07-31T10:24:40;11.02;;;3.08;;
43706;SDS011;61348;53.392;-6.248;2023-07-31T10:27:09;15.20;;;2.35;;
43706;SDS011;61348;53.392;-6.248;2023-07-31T10:29:37;7.57;;;2.85;;
43706;SDS011;61348;53.392;-6.248;2023-07-31T10:32:06;9.13;;;2.85;;
43706;SDS011;61348;53.392;-6.248;2023-07-31T10:34:36;9.93;;;2.42;;
43706;SDS011;61348;53.392;-6.248;2023-07-31T10:37:22;11.25;;;2.38;;
43706;SDS011;61348;53.392;-6.248;2023-07-31T10:39:56;6.75;;;2.47;;
43706;SDS011;61348;53.392;-6.248;2023-07-31T10:45:36;8.13;;;2.22;;
43706;SDS011;61348;53.392;-6.248;2023-07-31T10:50:36;12.82;;;3.00;;
43706;SDS011;61348;53.392;-6.248;2023-07-31T10:53:04;8.60;;;2.78;;
43706;SDS011;61348;53.392;-6.248;2023-07-31T10:55:38;6.68;;;2.20;;
43706;SDS011;61348;53.392;-6.248;2023-07-31T10:58:10;11.15;;;2.45;;
43706;SDS011;61348;53.392;-6.248;2023-07-31T11:00:39;15.38;;;3.92;;
43706;SDS011;61348;53.392;-6.248;2023-07-31T11:03:07;8.35;;;2.05;;
43706;SDS011;61348;53.392;-6.248;2023-07-31T11:05:43;9.20;;;2.88;;
43706;SDS011;61348;53.392;-6.248;2023-07-31T11:08:15;7.53;;;1.80;;
43706;SDS011;61348;53.392;-6.248;2023-07-31T11:10:43;8.10;;;1.98;;
43706;SDS011;61348;53.392;-6.248;2023-07-31T11:13:10;7.13;;;2.10;;
43706;SDS011;61348;53.392;-6.248;2023-07-31T11:15:38;11.45;;;2.15;;
43706;SDS011;61348;53.392;-6.248;2023-07-31T11:18:04;13.77;;;3.20;;
43706;SDS011;61348;53.392;-6.248;2023-07-31T11:20:32;7.95;;;2.03;;
43706;SDS011;61348;53.392;-6.248;2023-07-31T11:23:03;8.30;;;2.00;;
43706;SDS011;61348;53.392;-6.248;2023-07-31T11:25:32;13.30;;;2.03;;
43706;SDS011;61348;53.392;-6.248;2023-07-31T11:28:03;7.15;;;2.47;;
43706;SDS011;61348;53.392;-6.248;2023-07-31T11:30:40;7.22;;;2.47;;
43706;SDS011;61348;53.392;-6.248;2023-07-31T11:33:09;6.28;;;2.22;;
43706;SDS011;61348;53.392;-6.248;2023-07-31T11:35:42;11.23;;;3.25;;
43706;SDS011;61348;53.392;-6.248;2023-07-31T11:38:11;11.85;;;2.88;;
43706;SDS011;61348;53.392;-6.248;2023-07-31T11:41:02;6.45;;;1.67;;
43706;SDS011;61348;53.392;-6.248;2023-07-31T11:43:33;10.82;;;2.03;;
43706;SDS011;61348;53.392;-6.248;2023-07-31T11:46:02;6.47;;;1.75;;
43706;SDS011;61348;53.392;-6.248;2023-07-31T11:48:31;9.35;;;2.15;;
43706;SDS011;61348;53.392;-6.248;2023-07-31T11:51:03;10.18;;;1.92;;
43706;SDS011;61348;53.392;-6.248;2023-07-31T11:53:33;5.93;;;1.50;;
43706;SDS011;61348;53.392;-6.248;2023-07-31T11:56:04;7.57;;;1.63;;
43706;SDS011;61348;53.392;-6.248;2023-07-31T11:58:34;7.72;;;1.63;;
43706;SDS011;61348;53.392;-6.248;2023-07-31T12:01:01;9.68;;;2.13;;
43706;SDS011;61348;53.392;-6.248;2023-07-31T12:03:29;2.15;;;1.17;;
43706;SDS011;61348;53.392;-6.248;2023-07-31T12:05:56;6.70;;;1.83;;
43706;SDS011;61348;53.392;-6.248;2023-07-31T12:08:42;5.38;;;1.35;;
43706;SDS011;61348;53.392;-6.248;2023-07-31T12:11:09;5.30;;;1.20;;
43706;SDS011;61348;53.392;-6.248;2023-07-31T12:13:36;2.53;;;0.90;;
43706;SDS011;61348;53.392;-6.248;2023-07-31T12:16:03;4.07;;;1.30;;
43706;SDS011;61348;53.392;-6.248;2023-07-31T12:18:35;3.72;;;1.95;;
43706;SDS011;61348;53.392;-6.248;2023-07-31T12:21:06;3.45;;;1.20;;
43706;SDS011;61348;53.392;-6.248;2023-07-31T12:23:35;5.03;;;1.15;;
43706;SDS011;61348;53.392;-6.248;2023-07-31T12:26:03;3.25;;;1.05;;
43706;SDS011;61348;53.392;-6.248;2023-07-31T12:28:39;3.15;;;1.13;;
43706;SDS011;61348;53.392;-6.248;2023-07-31T12:33:43;2.50;;;1.08;;
43706;SDS011;61348;53.392;-6.248;2023-07-31T12:36:11;6.35;;;1.08;;
43706;SDS011;61348;53.392;-6.248;2023-07-31T12:38:42;2.65;;;1.00;;
43706;SDS011;61348;53.392;-6.248;2023-07-31T12:41:09;4.15;;;0.90;;
43706;SDS011;61348;53.392;-6.248;2023-07-31T12:43:37;3.03;;;1.38;;
43706;SDS011;61348;53.392;-6.248;2023-07-31T12:46:05;4.43;;;1.17;;
43706;SDS011;61348;53.392;-6.248;2023-07-31T12:48:34;4.40;;;1.23;;
43706;SDS011;61348;53.392;-6.248;2023-07-31T12:51:02;4.60;;;1.13;;
43706;SDS011;61348;53.392;-6.248;2023-07-31T12:53:29;2.78;;;0.90;;
43706;SDS011;61348;53.392;-6.248;2023-07-31T12:55:56;4.45;;;1.05;;
43706;SDS011;61348;53.392;-6.248;2023-07-31T12:58:23;3.13;;;0.88;;
43706;SDS011;61348;53.392;-6.248;2023-07-31T13:00:50;3.88;;;0.90;;
43706;SDS011;61348;53.392;-6.248;2023-07-31T13:03:17;3.08;;;0.98;;
43706;SDS011;61348;53.392;-6.248;2023-07-31T13:05:44;4.45;;;1.17;;
43706;SDS011;61348;53.392;-6.248;2023-07-31T13:08:11;2.58;;;1.00;;
43706;SDS011;61348;53.392;-6.248;2023-07-31T13:10:38;3.60;;;1.00;;
43706;SDS011;61348;53.392;-6.248;2023-07-31T13:13:05;1.30;;;0.80;;
43706;SDS011;61348;53.392;-6.248;2023-07-31T13:15:32;2.55;;;0.90;;
43706;SDS011;61348;53.392;-6.248;2023-07-31T13:18:02;3.58;;;1.30;;
43706;SDS011;61348;53.392;-6.248;2023-07-31T13:20:29;3.13;;;1.00;;
43706;SDS011;61348;53.392;-6.248;2023-07-31T13:22:55;4.88;;;1.38;;
43706;SDS011;61348;53.392;-6.248;2023-07-31T13:25:22;5.25;;;2.90;;
43706;SDS011;61348;53.392;-6.248;2023-07-31T13:27:49;3.25;;;1.30;;
43706;SDS011;61348;53.392;-6.248;2023-07-31T13:30:16;7.35;;;1.50;;
43706;SDS011;61348;53.392;-6.248;2023-07-31T13:32:43;8.02;;;1.30;;
43706;SDS011;61348;53.392;-6.248;2023-07-31T13:35:09;6.40;;;2.00;;
43706;SDS011;61348;53.392;-6.248;2023-07-31T13:37:38;6.10;;;1.77;;
43706;SDS011;61348;53.392;-6.248;2023-07-31T13:40:05;4.55;;;1.15;;
43706;SDS011;61348;53.392;-6.248;2023-07-31T13:42:32;9.48;;;2.30;;
43706;SDS011;61348;53.392;-6.248;2023-07-31T13:44:59;6.53;;;2.38;;
43706;SDS011;61348;53.392;-6.248;2023-07-31T13:47:28;6.22;;;1.60;;
43706;SDS011;61348;53.392;-6.248;2023-07-31T13:49:55;7.80;;;2.00;;
43706;SDS011;61348;53.392;-6.248;2023-07-31T13:52:22;6.68;;;1.50;;
43706;SDS011;61348;53.392;-6.248;2023-07-31T13:54:49;5.38;;;1.40;;
43706;SDS011;61348;53.392;-6.248;2023-07-31T13:57:16;4.85;;;1.33;;
43706;SDS011;61348;53.392;-6.248;2023-07-31T13:59:43;3.70;;;1.27;;
43706;SDS011;61348;53.392;-6.248;2023-07-31T14:02:10;5.00;;;0.88;;
43706;SDS011;61348;53.392;-6.248;2023-07-31T14:04:37;3.50;;;1.30;;
43706;SDS011;61348;53.392;-6.248;2023-07-31T14:07:03;6.18;;;1.38;;
43706;SDS011;61348;53.392;-6.248;2023-07-31T14:09:31;4.40;;;1.20;;
43706;SDS011;61348;53.392;-6.248;2023-07-31T14:11:57;7.70;;;1.50;;
43706;SDS011;61348;53.392;-6.248;2023-07-31T14:14:24;2.70;;;1.10;;
43706;SDS011;61348;53.392;-6.248;2023-07-31T14:16:51;1.73;;;0.88;;
43706;SDS011;61348;53.392;-6.248;2023-07-31T14:19:18;5.10;;;1.02;;
43706;SDS011;61348;53.392;-6.248;2023-07-31T14:21:45;2.40;;;1.15;;
43706;SDS011;61348;53.392;-6.248;2023-07-31T14:24:26;3.65;;;1.10;;
43706;SDS011;61348;53.392;-6.248;2023-07-31T14:26:53;2.75;;;1.10;;
43706;SDS011;61348;53.392;-6.248;2023-07-31T14:29:19;4.53;;;0.85;;
43706;SDS011;61348;53.392;-6.248;2023-07-31T14:31:46;4.25;;;1.27;;
43706;SDS011;61348;53.392;-6.248;2023-07-31T14:34:13;5.43;;;1.58;;
43706;SDS011;61348;53.392;-6.248;2023-07-31T14:36:40;3.20;;;1.13;;
43706;SDS011;61348;53.392;-6.248;2023-07-31T14:39:07;6.00;;;1.38;;
43706;SDS011;61348;53.392;-6.248;2023-07-31T14:41:34;5.72;;;1.35;;
43706;SDS011;61348;53.392;-6.248;2023-07-31T14:44:01;4.53;;;1.65;;
43706;SDS011;61348;53.392;-6.248;2023-07-31T14:46:27;3.38;;;1.00;;
43706;SDS011;61348;53.392;-6.248;2023-07-31T14:48:54;5.95;;;1.48;;
43706;SDS011;61348;53.392;-6.248;2023-07-31T14:51:21;10.48;;;1.58;;
43706;SDS011;61348;53.392;-6.248;2023-07-31T14:53:48;6.03;;;1.55;;
43706;SDS011;61348;53.392;-6.248;2023-07-31T14:56:15;5.45;;;1.30;;
43706;SDS011;61348;53.392;-6.248;2023-07-31T14:58:41;3.17;;;1.10;;
43706;SDS011;61348;53.392;-6.248;2023-07-31T15:01:08;6.05;;;1.10;;
43706;SDS011;61348;53.392;-6.248;2023-07-31T15:03:35;6.13;;;1.38;;